createdAt,value
2018-11-01T00:04:22.864Z,6.53
2018-11-01T00:09:27.045Z,7.67
2018-11-01T00:14:31.104Z,7.03
2018-11-01T00:19:35.231Z,6.87
2018-11-01T00:24:40.273Z,6.87
2018-11-01T00:29:44.356Z,7.47
2018-11-01T00:34:48.428Z,6.77
2018-11-01T00:39:53.401Z,6.87
2018-11-01T00:44:57.509Z,6.63
2018-11-01T00:50:01.677Z,6.23
2018-11-01T00:55:06.627Z,6.70
2018-11-01T01:00:13.239Z,6.43
2018-11-01T01:05:17.466Z,6.30
2018-11-01T01:10:21.652Z,7.57
2018-11-01T01:15:25.773Z,7.07
2018-11-01T01:20:29.876Z,6.80
2018-11-01T01:25:34.038Z,6.17
2018-11-01T01:30:38.095Z,6.90
2018-11-01T01:35:42.278Z,7.30
2018-11-01T01:40:46.443Z,7.07
2018-11-01T01:45:50.501Z,6.37
2018-11-01T01:50:54.600Z,6.40
2018-11-01T01:55:58.700Z,6.73
2018-11-01T02:01:02.851Z,7.13
2018-11-01T02:06:06.951Z,7.60
2018-11-01T02:11:11.231Z,8.67
2018-11-01T02:16:15.777Z,9.03
2018-11-01T02:21:20.367Z,8.30
2018-11-01T02:26:24.803Z,7.83
2018-11-01T02:31:29.882Z,7.77
2018-11-01T02:36:34.000Z,7.33
2018-11-01T02:41:38.103Z,7.17
2018-11-01T02:46:42.297Z,7.20
2018-11-01T02:51:46.420Z,6.63
2018-11-01T02:56:50.600Z,6.37
2018-11-01T03:01:54.769Z,6.20
2018-11-01T03:06:58.817Z,7.10
2018-11-01T03:12:02.700Z,6.67
2018-11-01T03:17:07.243Z,6.37
2018-11-01T03:22:11.376Z,7.40
2018-11-01T03:27:15.408Z,6.67
2018-11-01T03:32:19.506Z,6.73
2018-11-01T03:37:23.998Z,6.97
2018-11-01T03:42:28.186Z,6.20
2018-11-01T03:47:32.319Z,6.67
2018-11-01T03:52:36.632Z,7.00
2018-11-01T03:57:41.585Z,7.30
2018-11-01T04:02:47.032Z,7.00
2018-11-01T04:07:51.105Z,7.43
2018-11-01T04:12:55.183Z,7.17
2018-11-01T04:17:59.287Z,6.53
2018-11-01T04:23:03.374Z,7.17
2018-11-01T04:28:07.486Z,6.40
2018-11-01T04:33:11.650Z,6.83
2018-11-01T04:38:15.688Z,6.57
2018-11-01T04:43:19.801Z,6.23
2018-11-01T04:48:23.822Z,6.50
2018-11-01T04:53:28.015Z,6.60
2018-11-01T04:58:32.075Z,6.33
2018-11-01T05:03:36.199Z,6.57
2018-11-01T05:08:40.272Z,7.80
2018-11-01T05:13:44.314Z,6.90
2018-11-01T05:18:48.387Z,7.57
2018-11-01T05:23:52.464Z,7.07
2018-11-01T05:28:56.583Z,7.70
2018-11-01T05:34:00.642Z,7.97
2018-11-01T05:39:06.707Z,10.70
2018-11-01T05:44:10.788Z,8.33
2018-11-01T05:49:15.464Z,6.80
2018-11-01T05:54:19.579Z,7.97
2018-11-01T05:59:23.859Z,7.67
2018-11-01T06:04:27.935Z,6.27
2018-11-01T06:09:32.346Z,5.37
2018-11-01T06:14:36.344Z,7.00
2018-11-01T06:19:40.360Z,6.63
2018-11-01T06:24:44.372Z,6.60
2018-11-01T06:29:48.410Z,6.67
2018-11-01T06:34:55.750Z,6.37
2018-11-01T06:39:59.869Z,5.90
2018-11-01T06:45:04.000Z,6.30
2018-11-01T06:50:08.180Z,7.50
2018-11-01T06:55:12.501Z,7.93
2018-11-01T07:00:16.995Z,7.17
2018-11-01T07:05:21.162Z,6.53
2018-11-01T07:10:25.174Z,9.03
2018-11-01T07:15:29.258Z,10.10
2018-11-01T07:20:33.335Z,8.33
2018-11-01T07:25:37.556Z,7.70
2018-11-01T07:30:41.468Z,9.57
2018-11-01T07:35:45.543Z,6.23
2018-11-01T07:40:49.595Z,6.30
2018-11-01T07:45:53.664Z,6.73
2018-11-01T07:50:57.795Z,7.50
2018-11-01T07:56:01.907Z,7.50
2018-11-01T08:01:06.042Z,8.93
2018-11-01T08:06:10.269Z,6.60
2018-11-01T08:11:14.519Z,5.10
2018-11-01T08:16:18.697Z,5.43
2018-11-01T08:21:22.813Z,5.60
2018-11-01T08:26:26.778Z,3.83
2018-11-01T08:31:30.724Z,5.13
2018-11-01T08:36:34.880Z,4.90
2018-11-01T08:41:38.916Z,5.10
2018-11-01T08:46:43.021Z,3.07
2018-11-01T08:51:47.434Z,4.00
2018-11-01T08:56:51.496Z,3.90
2018-11-01T09:01:55.483Z,3.90
2018-11-01T09:06:59.738Z,5.30
2018-11-01T09:12:04.674Z,5.20
2018-11-01T09:17:10.751Z,4.87
2018-11-01T09:22:15.030Z,4.07
2018-11-01T09:27:19.323Z,3.20
2018-11-01T09:32:23.314Z,4.50
2018-11-01T09:37:27.248Z,4.43
2018-11-01T09:42:31.373Z,6.07
2018-11-01T09:47:35.957Z,6.27
2018-11-01T09:52:39.995Z,5.20
2018-11-01T09:57:44.043Z,5.73
2018-11-01T10:02:48.138Z,7.33
2018-11-01T10:07:52.098Z,7.70
2018-11-01T10:12:56.077Z,10.53
2018-11-01T10:18:00.594Z,6.50
2018-11-01T10:23:04.337Z,6.90
2018-11-01T10:28:08.300Z,5.47
2018-11-01T10:33:12.407Z,4.97
2018-11-01T10:38:16.902Z,5.23
2018-11-01T10:43:20.940Z,6.20
2018-11-01T10:48:24.993Z,5.53
2018-11-01T10:53:29.053Z,4.67
2018-11-01T10:58:33.102Z,4.80
2018-11-01T11:03:37.105Z,4.93
2018-11-01T11:08:41.259Z,5.23
2018-11-01T11:13:45.395Z,5.43
2018-11-01T11:18:49.444Z,5.50
2018-11-01T11:23:53.618Z,5.83
2018-11-01T11:28:57.945Z,6.93
2018-11-01T11:34:02.269Z,6.90
2018-11-01T11:39:09.544Z,6.03
2018-11-01T11:44:13.386Z,6.07
2018-11-01T11:49:17.482Z,5.80
2018-11-01T11:54:21.657Z,5.90
2018-11-01T11:59:25.665Z,5.00
2018-11-01T12:04:29.759Z,7.03
2018-11-01T12:09:34.030Z,6.40
2018-11-01T12:14:38.122Z,7.57
2018-11-01T12:19:42.240Z,9.13
2018-11-01T12:24:46.392Z,7.97
2018-11-01T12:29:50.543Z,8.70
2018-11-01T12:34:54.638Z,8.50
2018-11-01T12:39:58.742Z,7.40
2018-11-01T12:45:02.904Z,9.07
2018-11-01T12:50:08.929Z,10.63
2018-11-01T12:55:12.865Z,7.00
2018-11-01T13:00:16.950Z,7.00
2018-11-01T13:05:21.044Z,6.80
2018-11-01T13:10:25.049Z,8.23
2018-11-01T13:15:29.088Z,6.87
2018-11-01T13:20:33.190Z,8.03
2018-11-01T13:25:37.795Z,4.77
2018-11-01T13:30:41.909Z,4.90
2018-11-01T13:35:46.291Z,5.07
2018-11-01T13:40:50.565Z,4.87
2018-11-01T13:45:54.345Z,9.10
2018-11-01T13:50:58.522Z,8.93
2018-11-01T13:56:03.166Z,8.70
2018-11-01T14:01:07.357Z,7.87
2018-11-01T14:06:11.647Z,7.13
2018-11-01T14:11:15.716Z,9.87
2018-11-01T14:16:19.887Z,14.33
2018-11-01T14:21:24.825Z,6.73
2018-11-01T14:26:28.853Z,5.83
2018-11-01T14:31:32.873Z,7.67
2018-11-01T14:36:36.961Z,7.87
2018-11-01T14:41:41.323Z,7.67
2018-11-01T14:46:45.429Z,13.57
2018-11-01T14:51:49.581Z,8.70
2018-11-01T14:56:55.237Z,8.43
2018-11-01T15:01:57.979Z,14.83
2018-11-01T15:07:02.339Z,8.23
2018-11-01T15:12:06.888Z,6.63
2018-11-01T15:17:12.714Z,8.63
2018-11-01T15:22:18.143Z,6.37
2018-11-01T15:27:22.232Z,13.63
2018-11-01T15:32:29.238Z,7.73
2018-11-01T15:37:33.423Z,8.23
2018-11-01T15:42:37.508Z,9.87
2018-11-01T15:47:42.310Z,12.40
2018-11-01T15:52:46.807Z,8.30
2018-11-01T15:57:50.861Z,10.17
2018-11-01T16:02:55.227Z,10.80
2018-11-01T16:07:59.299Z,10.57
2018-11-01T16:13:03.402Z,10.27
2018-11-01T16:18:07.566Z,12.00
2018-11-01T16:23:12.238Z,12.87
2018-11-01T16:28:16.322Z,13.80
2018-11-01T16:33:20.492Z,14.70
2018-11-01T16:38:24.704Z,13.20
2018-11-01T16:43:31.256Z,18.90
2018-11-01T16:48:35.632Z,17.73
2018-11-01T16:53:40.015Z,24.17
2018-11-01T16:58:44.303Z,24.57
2018-11-01T17:03:48.400Z,26.70
2018-11-01T17:08:52.527Z,25.17
2018-11-01T17:13:56.654Z,25.23
2018-11-01T17:19:00.571Z,22.50
2018-11-01T17:24:04.742Z,19.43
2018-11-01T17:29:09.098Z,12.70
2018-11-01T17:34:13.339Z,10.63
2018-11-01T17:39:18.588Z,10.70
2018-11-01T17:44:23.673Z,12.10
2018-11-01T17:49:28.160Z,12.90
2018-11-01T17:54:32.834Z,15.00
2018-11-01T17:59:37.019Z,14.53
2018-11-01T18:04:41.501Z,11.87
2018-11-01T18:09:45.580Z,8.93
2018-11-01T18:14:49.800Z,7.73
2018-11-01T18:19:53.989Z,7.77
2018-11-01T18:24:58.131Z,12.07
2018-11-01T18:30:02.402Z,5.87
2018-11-01T18:35:07.640Z,7.30
2018-11-01T18:40:18.924Z,7.63
2018-11-01T18:45:25.460Z,6.67
2018-11-01T18:50:30.195Z,7.27
2018-11-01T18:55:34.626Z,7.13
2018-11-01T19:00:39.040Z,9.97
2018-11-01T19:05:43.318Z,9.47
2018-11-01T19:10:47.678Z,11.27
2018-11-01T19:15:51.839Z,12.07
2018-11-01T19:20:56.115Z,10.07
2018-11-01T19:26:00.259Z,6.90
2018-11-01T19:31:04.490Z,6.43
2018-11-01T19:36:08.375Z,8.83
2018-11-01T19:41:12.464Z,6.10
2018-11-01T19:46:17.147Z,5.37
2018-11-01T19:51:23.515Z,10.07
2018-11-01T19:56:27.795Z,6.40
2018-11-01T20:01:31.968Z,6.30
2018-11-01T20:06:36.192Z,8.00
2018-11-01T20:11:40.761Z,8.47
2018-11-01T20:16:44.923Z,7.07
2018-11-01T20:21:49.599Z,6.40
2018-11-01T20:26:54.869Z,6.43
2018-11-01T20:32:00.482Z,5.47
2018-11-01T20:37:04.950Z,5.53
2018-11-01T20:42:11.109Z,6.00
2018-11-01T20:47:16.558Z,5.30
2018-11-01T20:52:20.936Z,5.70
2018-11-01T20:57:25.593Z,5.43
2018-11-01T21:02:29.920Z,4.90
2018-11-01T21:07:34.251Z,6.00
2018-11-01T21:12:38.752Z,5.87
2018-11-01T21:17:42.720Z,6.00
2018-11-01T21:22:47.219Z,7.90
2018-11-01T21:27:52.741Z,10.93
2018-11-01T21:32:57.787Z,9.50
2018-11-01T21:38:05.007Z,10.80
2018-11-01T21:43:17.927Z,9.63
2018-11-01T21:48:25.490Z,9.10
2018-11-01T21:53:31.546Z,10.20
2018-11-01T21:58:37.653Z,9.60
2018-11-01T22:03:41.791Z,8.90
2018-11-01T22:08:46.495Z,9.83
2018-11-01T22:13:50.250Z,9.07
2018-11-01T22:18:54.420Z,9.17
2018-11-01T22:23:58.573Z,8.80
2018-11-01T22:29:02.393Z,8.77
2018-11-01T22:34:06.555Z,8.00
2018-11-01T22:39:11.954Z,9.20
2018-11-01T22:44:16.440Z,10.20
2018-11-01T22:49:20.256Z,10.50
2018-11-01T22:54:25.694Z,8.10
2018-11-01T22:59:29.947Z,7.70
2018-11-01T23:04:34.418Z,7.90
2018-11-01T23:09:38.282Z,7.40
2018-11-01T23:14:45.213Z,7.30
2018-11-01T23:19:49.312Z,7.37
2018-11-01T23:24:53.356Z,6.60
2018-11-01T23:29:57.714Z,6.77
2018-11-01T23:35:01.781Z,6.93
2018-11-01T23:40:11.636Z,7.37
2018-11-01T23:45:21.398Z,7.40
2018-11-01T23:50:30.162Z,6.93
2018-11-01T23:55:34.416Z,6.10
